sensor_id;sensor_type;location;lat;lon;timestamp;P1;durP1;ratioP1;P2;durP2;ratioP2
12110;SDS011;6119;52.372;8.990;2023-07-24T00:02:37;3.13;;;2.67;;
12110;SDS011;6119;52.372;8.990;2023-07-24T00:05:24;3.20;;;2.63;;
12110;SDS011;6119;52.372;8.990;2023-07-24T00:08:11;3.40;;;2.63;;
12110;SDS011;6119;52.372;8.990;2023-07-24T00:10:57;3.20;;;3.00;;
12110;SDS011;6119;52.372;8.990;2023-07-24T00:13:44;3.57;;;3.27;;
12110;SDS011;6119;52.372;8.990;2023-07-24T00:16:31;4.17;;;2.83;;
12110;SDS011;6119;52.372;8.990;2023-07-24T00:19:19;6.17;;;2.70;;
12110;SDS011;6119;52.372;8.990;2023-07-24T00:22:06;3.33;;;3.03;;
12110;SDS011;6119;52.372;8.990;2023-07-24T00:24:53;3.50;;;3.20;;
12110;SDS011;6119;52.372;8.990;2023-07-24T00:27:39;3.53;;;3.23;;
12110;SDS011;6119;52.372;8.990;2023-07-24T00:30:26;3.30;;;3.10;;
12110;SDS011;6119;52.372;8.990;2023-07-24T00:33:13;4.00;;;3.60;;
12110;SDS011;6119;52.372;8.990;2023-07-24T00:36:01;3.90;;;3.60;;
12110;SDS011;6119;52.372;8.990;2023-07-24T00:38:47;4.07;;;3.67;;
12110;SDS011;6119;52.372;8.990;2023-07-24T00:41:34;4.03;;;3.57;;
12110;SDS011;6119;52.372;8.990;2023-07-24T00:44:21;4.00;;;3.70;;
12110;SDS011;6119;52.372;8.990;2023-07-24T00:47:07;4.27;;;3.47;;
12110;SDS011;6119;52.372;8.990;2023-07-24T00:49:54;4.90;;;3.93;;
12110;SDS011;6119;52.372;8.990;2023-07-24T00:52:43;6.03;;;4.50;;
12110;SDS011;6119;52.372;8.990;2023-07-24T00:55:30;4.17;;;3.77;;
12110;SDS011;6119;52.372;8.990;2023-07-24T00:58:17;4.90;;;4.40;;
12110;SDS011;6119;52.372;8.990;2023-07-24T01:01:05;5.43;;;4.20;;
12110;SDS011;6119;52.372;8.990;2023-07-24T01:03:52;4.93;;;4.10;;
12110;SDS011;6119;52.372;8.990;2023-07-24T01:06:40;4.20;;;3.80;;
12110;SDS011;6119;52.372;8.990;2023-07-24T01:09:28;9.33;;;4.30;;
12110;SDS011;6119;52.372;8.990;2023-07-24T01:12:18;5.40;;;4.90;;
12110;SDS011;6119;52.372;8.990;2023-07-24T01:15:09;6.57;;;4.87;;
12110;SDS011;6119;52.372;8.990;2023-07-24T01:18:06;5.67;;;5.17;;
12110;SDS011;6119;52.372;8.990;2023-07-24T01:20:55;5.30;;;4.80;;
12110;SDS011;6119;52.372;8.990;2023-07-24T01:23:50;5.67;;;5.10;;
12110;SDS011;6119;52.372;8.990;2023-07-24T01:26:43;5.37;;;4.87;;
12110;SDS011;6119;52.372;8.990;2023-07-24T01:29:30;5.50;;;5.00;;
12110;SDS011;6119;52.372;8.990;2023-07-24T01:32:16;5.60;;;5.10;;
12110;SDS011;6119;52.372;8.990;2023-07-24T01:35:04;7.30;;;5.87;;
12110;SDS011;6119;52.372;8.990;2023-07-24T01:37:51;6.67;;;5.57;;
12110;SDS011;6119;52.372;8.990;2023-07-24T01:40:39;11.97;;;6.20;;
12110;SDS011;6119;52.372;8.990;2023-07-24T01:43:29;6.73;;;5.70;;
12110;SDS011;6119;52.372;8.990;2023-07-24T01:46:17;6.93;;;5.83;;
12110;SDS011;6119;52.372;8.990;2023-07-24T01:49:03;7.20;;;5.70;;
12110;SDS011;6119;52.372;8.990;2023-07-24T01:51:50;6.17;;;5.57;;
12110;SDS011;6119;52.372;8.990;2023-07-24T01:54:36;6.27;;;5.67;;
12110;SDS011;6119;52.372;8.990;2023-07-24T01:57:24;6.67;;;5.23;;
12110;SDS011;6119;52.372;8.990;2023-07-24T02:00:12;6.20;;;5.60;;
12110;SDS011;6119;52.372;8.990;2023-07-24T02:02:59;5.57;;;4.67;;
12110;SDS011;6119;52.372;8.990;2023-07-24T02:05:48;6.53;;;5.00;;
12110;SDS011;6119;52.372;8.990;2023-07-24T02:08:36;5.33;;;4.80;;
12110;SDS011;6119;52.372;8.990;2023-07-24T02:11:23;23.70;;;5.27;;
12110;SDS011;6119;52.372;8.990;2023-07-24T02:14:11;5.80;;;5.27;;
12110;SDS011;6119;52.372;8.990;2023-07-24T02:17:00;5.77;;;4.83;;
12110;SDS011;6119;52.372;8.990;2023-07-24T02:19:47;5.73;;;5.23;;
12110;SDS011;6119;52.372;8.990;2023-07-24T02:22:33;7.83;;;5.40;;
12110;SDS011;6119;52.372;8.990;2023-07-24T02:25:20;8.40;;;5.67;;
12110;SDS011;6119;52.372;8.990;2023-07-24T02:28:07;8.10;;;5.40;;
12110;SDS011;6119;52.372;8.990;2023-07-24T02:30:53;7.80;;;5.80;;
12110;SDS011;6119;52.372;8.990;2023-07-24T02:33:43;5.90;;;5.30;;
12110;SDS011;6119;52.372;8.990;2023-07-24T02:36:29;7.30;;;5.57;;
12110;SDS011;6119;52.372;8.990;2023-07-24T02:39:16;5.83;;;5.33;;
12110;SDS011;6119;52.372;8.990;2023-07-24T02:42:03;5.63;;;5.13;;
12110;SDS011;6119;52.372;8.990;2023-07-24T02:44:50;7.90;;;5.60;;
12110;SDS011;6119;52.372;8.990;2023-07-24T02:47:38;6.83;;;5.30;;
12110;SDS011;6119;52.372;8.990;2023-07-24T02:50:26;8.00;;;4.97;;
12110;SDS011;6119;52.372;8.990;2023-07-24T02:53:13;5.77;;;4.90;;
12110;SDS011;6119;52.372;8.990;2023-07-24T02:56:00;7.33;;;4.50;;
12110;SDS011;6119;52.372;8.990;2023-07-24T02:58:47;4.07;;;3.77;;
12110;SDS011;6119;52.372;8.990;2023-07-24T03:01:34;5.33;;;4.03;;
12110;SDS011;6119;52.372;8.990;2023-07-24T03:04:21;5.33;;;4.13;;
12110;SDS011;6119;52.372;8.990;2023-07-24T03:07:09;6.03;;;3.87;;
12110;SDS011;6119;52.372;8.990;2023-07-24T03:09:56;3.87;;;3.50;;
12110;SDS011;6119;52.372;8.990;2023-07-24T03:12:42;4.63;;;3.23;;
12110;SDS011;6119;52.372;8.990;2023-07-24T03:15:29;3.73;;;3.03;;
12110;SDS011;6119;52.372;8.990;2023-07-24T03:18:16;3.27;;;2.97;;
12110;SDS011;6119;52.372;8.990;2023-07-24T03:21:02;4.17;;;3.30;;
12110;SDS011;6119;52.372;8.990;2023-07-24T03:23:51;4.77;;;2.97;;
12110;SDS011;6119;52.372;8.990;2023-07-24T03:26:37;6.07;;;3.03;;
12110;SDS011;6119;52.372;8.990;2023-07-24T03:29:24;4.83;;;3.20;;
12110;SDS011;6119;52.372;8.990;2023-07-24T03:32:10;2.97;;;2.67;;
12110;SDS011;6119;52.372;8.990;2023-07-24T03:34:59;4.30;;;3.17;;
12110;SDS011;6119;52.372;8.990;2023-07-24T03:37:45;4.50;;;3.30;;
12110;SDS011;6119;52.372;8.990;2023-07-24T03:40:33;7.47;;;3.13;;
12110;SDS011;6119;52.372;8.990;2023-07-24T03:43:20;7.47;;;3.03;;
12110;SDS011;6119;52.372;8.990;2023-07-24T03:46:07;5.07;;;2.80;;
12110;SDS011;6119;52.372;8.990;2023-07-24T03:48:53;5.17;;;2.80;;
12110;SDS011;6119;52.372;8.990;2023-07-24T03:51:40;6.07;;;3.00;;
12110;SDS011;6119;52.372;8.990;2023-07-24T03:54:27;5.63;;;3.20;;
12110;SDS011;6119;52.372;8.990;2023-07-24T03:57:15;5.47;;;2.93;;
12110;SDS011;6119;52.372;8.990;2023-07-24T04:00:01;7.10;;;3.40;;
12110;SDS011;6119;52.372;8.990;2023-07-24T04:02:49;7.73;;;3.20;;
12110;SDS011;6119;52.372;8.990;2023-07-24T04:05:36;6.27;;;2.80;;
12110;SDS011;6119;52.372;8.990;2023-07-24T04:08:22;3.67;;;2.50;;
12110;SDS011;6119;52.372;8.990;2023-07-24T04:11:09;6.90;;;2.93;;
12110;SDS011;6119;52.372;8.990;2023-07-24T04:13:57;5.83;;;3.10;;
12110;SDS011;6119;52.372;8.990;2023-07-24T04:16:44;3.20;;;2.47;;
12110;SDS011;6119;52.372;8.990;2023-07-24T04:19:31;4.03;;;2.63;;
12110;SDS011;6119;52.372;8.990;2023-07-24T04:22:17;4.53;;;3.03;;
12110;SDS011;6119;52.372;8.990;2023-07-24T04:25:04;5.50;;;2.63;;
12110;SDS011;6119;52.372;8.990;2023-07-24T04:27:51;4.43;;;3.00;;
12110;SDS011;6119;52.372;8.990;2023-07-24T04:30:39;7.00;;;2.90;;
12110;SDS011;6119;52.372;8.990;2023-07-24T04:33:26;3.97;;;2.90;;
12110;SDS011;6119;52.372;8.990;2023-07-24T04:36:14;5.40;;;2.97;;
12110;SDS011;6119;52.372;8.990;2023-07-24T04:39:02;3.17;;;2.53;;
12110;SDS011;6119;52.372;8.990;2023-07-24T04:41:49;3.67;;;2.97;;
12110;SDS011;6119;52.372;8.990;2023-07-24T04:44:36;3.70;;;2.73;;
12110;SDS011;6119;52.372;8.990;2023-07-24T04:47:24;2.83;;;2.57;;
12110;SDS011;6119;52.372;8.990;2023-07-24T04:50:10;4.23;;;3.10;;
12110;SDS011;6119;52.372;8.990;2023-07-24T04:52:57;5.50;;;2.70;;
12110;SDS011;6119;52.372;8.990;2023-07-24T04:55:45;8.57;;;3.20;;
12110;SDS011;6119;52.372;8.990;2023-07-24T04:58:32;5.57;;;3.90;;
12110;SDS011;6119;52.372;8.990;2023-07-24T05:01:18;8.23;;;3.83;;
12110;SDS011;6119;52.372;8.990;2023-07-24T05:04:06;5.77;;;3.50;;
12110;SDS011;6119;52.372;8.990;2023-07-24T05:06:53;4.63;;;2.87;;
12110;SDS011;6119;52.372;8.990;2023-07-24T05:09:40;4.77;;;2.80;;
12110;SDS011;6119;52.372;8.990;2023-07-24T05:12:26;6.17;;;3.10;;
12110;SDS011;6119;52.372;8.990;2023-07-24T05:15:13;4.37;;;2.73;;
12110;SDS011;6119;52.372;8.990;2023-07-24T05:18:01;4.23;;;2.70;;
12110;SDS011;6119;52.372;8.990;2023-07-24T05:20:49;3.20;;;2.87;;
12110;SDS011;6119;52.372;8.990;2023-07-24T05:23:37;3.87;;;2.53;;
12110;SDS011;6119;52.372;8.990;2023-07-24T05:26:23;2.60;;;2.40;;
12110;SDS011;6119;52.372;8.990;2023-07-24T05:29:10;8.00;;;2.77;;
12110;SDS011;6119;52.372;8.990;2023-07-24T05:31:57;5.90;;;2.53;;
12110;SDS011;6119;52.372;8.990;2023-07-24T05:34:44;5.27;;;2.83;;
12110;SDS011;6119;52.372;8.990;2023-07-24T05:37:32;7.23;;;2.87;;
12110;SDS011;6119;52.372;8.990;2023-07-24T05:40:19;6.13;;;2.50;;
12110;SDS011;6119;52.372;8.990;2023-07-24T05:43:05;4.87;;;2.80;;
12110;SDS011;6119;52.372;8.990;2023-07-24T05:45:52;6.43;;;2.83;;
12110;SDS011;6119;52.372;8.990;2023-07-24T05:48:39;4.07;;;2.90;;
12110;SDS011;6119;52.372;8.990;2023-07-24T05:51:26;3.23;;;2.80;;
12110;SDS011;6119;52.372;8.990;2023-07-24T05:54:14;9.47;;;3.60;;
12110;SDS011;6119;52.372;8.990;2023-07-24T05:57:01;7.20;;;3.20;;
12110;SDS011;6119;52.372;8.990;2023-07-24T05:59:47;6.60;;;3.43;;
12110;SDS011;6119;52.372;8.990;2023-07-24T06:02:35;5.57;;;3.07;;
12110;SDS011;6119;52.372;8.990;2023-07-24T06:05:22;4.93;;;3.30;;
12110;SDS011;6119;52.372;8.990;2023-07-24T06:08:09;5.33;;;3.30;;
12110;SDS011;6119;52.372;8.990;2023-07-24T06:10:58;8.33;;;3.33;;
12110;SDS011;6119;52.372;8.990;2023-07-24T06:13:45;4.37;;;3.07;;
12110;SDS011;6119;52.372;8.990;2023-07-24T06:16:31;11.97;;;3.27;;
12110;SDS011;6119;52.372;8.990;2023-07-24T06:19:18;4.97;;;3.40;;
12110;SDS011;6119;52.372;8.990;2023-07-24T06:22:04;6.77;;;3.23;;
12110;SDS011;6119;52.372;8.990;2023-07-24T06:24:51;5.40;;;3.73;;
12110;SDS011;6119;52.372;8.990;2023-07-24T06:27:39;6.90;;;3.57;;
12110;SDS011;6119;52.372;8.990;2023-07-24T06:30:26;5.10;;;2.73;;
12110;SDS011;6119;52.372;8.990;2023-07-24T06:33:13;3.17;;;2.63;;
12110;SDS011;6119;52.372;8.990;2023-07-24T06:35:59;3.20;;;2.23;;
12110;SDS011;6119;52.372;8.990;2023-07-24T06:38:46;5.30;;;2.03;;
12110;SDS011;6119;52.372;8.990;2023-07-24T06:41:33;1.83;;;1.70;;
12110;SDS011;6119;52.372;8.990;2023-07-24T06:44:21;2.50;;;2.07;;
12110;SDS011;6119;52.372;8.990;2023-07-24T06:47:07;3.73;;;2.10;;
12110;SDS011;6119;52.372;8.990;2023-07-24T06:49:54;2.20;;;2.00;;
12110;SDS011;6119;52.372;8.990;2023-07-24T06:52:40;2.57;;;2.20;;
12110;SDS011;6119;52.372;8.990;2023-07-24T06:55:27;3.73;;;2.30;;
12110;SDS011;6119;52.372;8.990;2023-07-24T06:58:14;2.87;;;2.40;;
12110;SDS011;6119;52.372;8.990;2023-07-24T07:01:04;2.77;;;2.03;;
12110;SDS011;6119;52.372;8.990;2023-07-24T07:03:51;2.83;;;2.27;;
12110;SDS011;6119;52.372;8.990;2023-07-24T07:06:38;3.77;;;2.23;;
12110;SDS011;6119;52.372;8.990;2023-07-24T07:09:24;4.47;;;2.10;;
12110;SDS011;6119;52.372;8.990;2023-07-24T07:12:11;2.60;;;2.23;;
12110;SDS011;6119;52.372;8.990;2023-07-24T07:14:58;2.77;;;2.03;;
12110;SDS011;6119;52.372;8.990;2023-07-24T07:17:45;3.30;;;2.20;;
12110;SDS011;6119;52.372;8.990;2023-07-24T07:20:32;3.83;;;2.30;;
12110;SDS011;6119;52.372;8.990;2023-07-24T07:23:19;2.63;;;2.20;;
12110;SDS011;6119;52.372;8.990;2023-07-24T07:26:06;3.47;;;2.13;;
12110;SDS011;6119;52.372;8.990;2023-07-24T07:28:53;1.93;;;1.80;;
12110;SDS011;6119;52.372;8.990;2023-07-24T07:31:40;2.50;;;2.10;;
12110;SDS011;6119;52.372;8.990;2023-07-24T07:34:28;2.87;;;2.20;;
12110;SDS011;6119;52.372;8.990;2023-07-24T07:37:15;3.37;;;2.17;;
12110;SDS011;6119;52.372;8.990;2023-07-24T07:40:02;2.73;;;2.17;;
12110;SDS011;6119;52.372;8.990;2023-07-24T07:42:49;2.90;;;2.50;;
12110;SDS011;6119;52.372;8.990;2023-07-24T07:45:36;3.30;;;2.60;;
12110;SDS011;6119;52.372;8.990;2023-07-24T07:48:23;2.57;;;2.30;;
12110;SDS011;6119;52.372;8.990;2023-07-24T07:51:11;3.00;;;2.50;;
12110;SDS011;6119;52.372;8.990;2023-07-24T07:53:57;6.50;;;2.83;;
12110;SDS011;6119;52.372;8.990;2023-07-24T07:56:44;3.80;;;2.97;;
12110;SDS011;6119;52.372;8.990;2023-07-24T07:59:31;3.37;;;2.63;;
12110;SDS011;6119;52.372;8.990;2023-07-24T08:02:18;3.20;;;2.87;;
12110;SDS011;6119;52.372;8.990;2023-07-24T08:05:05;2.80;;;2.50;;
12110;SDS011;6119;52.372;8.990;2023-07-24T08:08:03;3.63;;;3.07;;
12110;SDS011;6119;52.372;8.990;2023-07-24T08:10:50;4.27;;;3.37;;
12110;SDS011;6119;52.372;8.990;2023-07-24T08:13:37;4.10;;;3.03;;
12110;SDS011;6119;52.372;8.990;2023-07-24T08:16:23;3.93;;;3.53;;
12110;SDS011;6119;52.372;8.990;2023-07-24T08:19:10;3.67;;;3.37;;
12110;SDS011;6119;52.372;8.990;2023-07-24T08:21:57;4.43;;;4.03;;
12110;SDS011;6119;52.372;8.990;2023-07-24T08:24:45;4.27;;;3.77;;
12110;SDS011;6119;52.372;8.990;2023-07-24T08:27:35;4.03;;;3.70;;
12110;SDS011;6119;52.372;8.990;2023-07-24T08:30:42;5.67;;;4.23;;
12110;SDS011;6119;52.372;8.990;2023-07-24T08:33:28;5.40;;;4.67;;
12110;SDS011;6119;52.372;8.990;2023-07-24T08:36:16;5.90;;;4.43;;
12110;SDS011;6119;52.372;8.990;2023-07-24T08:39:02;4.90;;;4.20;;
12110;SDS011;6119;52.372;8.990;2023-07-24T08:41:50;6.10;;;4.53;;
12110;SDS011;6119;52.372;8.990;2023-07-24T08:44:37;5.00;;;4.57;;
12110;SDS011;6119;52.372;8.990;2023-07-24T08:47:24;5.80;;;4.33;;
12110;SDS011;6119;52.372;8.990;2023-07-24T08:50:11;4.90;;;4.40;;
12110;SDS011;6119;52.372;8.990;2023-07-24T08:52:59;5.60;;;5.10;;
12110;SDS011;6119;52.372;8.990;2023-07-24T08:55:48;5.07;;;4.53;;
12110;SDS011;6119;52.372;8.990;2023-07-24T08:58:36;5.23;;;4.77;;
12110;SDS011;6119;52.372;8.990;2023-07-24T09:01:24;5.60;;;4.97;;
12110;SDS011;6119;52.372;8.990;2023-07-24T09:04:12;6.23;;;5.63;;
12110;SDS011;6119;52.372;8.990;2023-07-24T09:06:58;6.97;;;4.90;;
12110;SDS011;6119;52.372;8.990;2023-07-24T09:09:46;7.30;;;5.60;;
12110;SDS011;6119;52.372;8.990;2023-07-24T09:12:34;5.80;;;5.23;;
12110;SDS011;6119;52.372;8.990;2023-07-24T09:15:26;7.27;;;6.40;;
12110;SDS011;6119;52.372;8.990;2023-07-24T09:18:13;7.73;;;6.60;;
12110;SDS011;6119;52.372;8.990;2023-07-24T09:21:00;7.63;;;6.80;;
12110;SDS011;6119;52.372;8.990;2023-07-24T09:23:47;7.10;;;6.27;;
12110;SDS011;6119;52.372;8.990;2023-07-24T09:26:34;6.47;;;5.90;;
12110;SDS011;6119;52.372;8.990;2023-07-24T09:29:20;7.20;;;6.50;;
12110;SDS011;6119;52.372;8.990;2023-07-24T09:32:09;7.00;;;6.30;;
12110;SDS011;6119;52.372;8.990;2023-07-24T09:35:15;6.83;;;6.00;;
12110;SDS011;6119;52.372;8.990;2023-07-24T09:38:03;6.83;;;6.13;;
12110;SDS011;6119;52.372;8.990;2023-07-24T09:40:52;6.83;;;6.20;;
12110;SDS011;6119;52.372;8.990;2023-07-24T09:43:41;6.83;;;6.17;;
12110;SDS011;6119;52.372;8.990;2023-07-24T09:46:28;8.37;;;6.90;;
12110;SDS011;6119;52.372;8.990;2023-07-24T09:49:30;6.97;;;6.37;;
12110;SDS011;6119;52.372;8.990;2023-07-24T09:52:17;8.07;;;6.60;;
12110;SDS011;6119;52.372;8.990;2023-07-24T09:55:10;7.03;;;6.40;;
12110;SDS011;6119;52.372;8.990;2023-07-24T09:57:58;16.37;;;10.07;;
12110;SDS011;6119;52.372;8.990;2023-07-24T10:00:46;7.97;;;7.18;;
12110;SDS011;6119;52.372;8.990;2023-07-24T10:03:35;7.00;;;6.30;;
12110;SDS011;6119;52.372;8.990;2023-07-24T10:06:29;7.17;;;6.27;;
12110;SDS011;6119;52.372;8.990;2023-07-24T10:09:17;8.47;;;6.87;;
12110;SDS011;6119;52.372;8.990;2023-07-24T10:12:08;9.13;;;7.17;;
12110;SDS011;6119;52.372;8.990;2023-07-24T10:14:55;7.50;;;6.80;;
12110;SDS011;6119;52.372;8.990;2023-07-24T10:17:42;7.50;;;6.80;;
12110;SDS011;6119;52.372;8.990;2023-07-24T10:20:32;6.47;;;5.80;;
12110;SDS011;6119;52.372;8.990;2023-07-24T10:23:22;3.63;;;2.70;;
12110;SDS011;6119;52.372;8.990;2023-07-24T10:26:09;3.40;;;3.10;;
12110;SDS011;6119;52.372;8.990;2023-07-24T10:28:56;3.47;;;2.23;;
12110;SDS011;6119;52.372;8.990;2023-07-24T10:31:51;3.80;;;2.20;;
12110;SDS011;6119;52.372;8.990;2023-07-24T10:34:39;2.47;;;2.27;;
12110;SDS011;6119;52.372;8.990;2023-07-24T10:37:32;3.67;;;2.50;;
12110;SDS011;6119;52.372;8.990;2023-07-24T10:40:22;3.00;;;2.60;;
12110;SDS011;6119;52.372;8.990;2023-07-24T10:43:09;2.77;;;2.37;;
12110;SDS011;6119;52.372;8.990;2023-07-24T10:45:57;2.83;;;2.17;;
12110;SDS011;6119;52.372;8.990;2023-07-24T10:48:44;3.97;;;2.40;;
12110;SDS011;6119;52.372;8.990;2023-07-24T10:51:32;3.10;;;2.23;;
12110;SDS011;6119;52.372;8.990;2023-07-24T10:54:22;2.20;;;1.93;;
12110;SDS011;6119;52.372;8.990;2023-07-24T10:57:10;2.90;;;2.20;;
12110;SDS011;6119;52.372;8.990;2023-07-24T10:59:57;2.03;;;1.90;;
12110;SDS011;6119;52.372;8.990;2023-07-24T11:02:45;2.40;;;2.20;;
12110;SDS011;6119;52.372;8.990;2023-07-24T11:05:32;3.23;;;1.70;;
12110;SDS011;6119;52.372;8.990;2023-07-24T11:08:20;2.00;;;1.80;;
12110;SDS011;6119;52.372;8.990;2023-07-24T11:11:07;2.17;;;1.93;;
12110;SDS011;6119;52.372;8.990;2023-07-24T11:13:55;1.90;;;1.80;;
12110;SDS011;6119;52.372;8.990;2023-07-24T11:16:47;2.53;;;2.00;;
12110;SDS011;6119;52.372;8.990;2023-07-24T11:19:34;2.00;;;1.80;;
12110;SDS011;6119;52.372;8.990;2023-07-24T11:22:21;2.57;;;1.80;;
12110;SDS011;6119;52.372;8.990;2023-07-24T11:25:08;2.33;;;2.13;;
12110;SDS011;6119;52.372;8.990;2023-07-24T11:27:56;2.17;;;1.97;;
12110;SDS011;6119;52.372;8.990;2023-07-24T11:30:45;2.37;;;2.03;;
12110;SDS011;6119;52.372;8.990;2023-07-24T11:33:32;4.13;;;2.00;;
12110;SDS011;6119;52.372;8.990;2023-07-24T11:36:19;2.47;;;2.27;;
12110;SDS011;6119;52.372;8.990;2023-07-24T11:39:06;3.17;;;2.30;;
12110;SDS011;6119;52.372;8.990;2023-07-24T11:41:53;2.37;;;2.13;;
12110;SDS011;6119;52.372;8.990;2023-07-24T11:44:40;2.50;;;2.30;;
12110;SDS011;6119;52.372;8.990;2023-07-24T11:47:29;2.13;;;1.90;;
12110;SDS011;6119;52.372;8.990;2023-07-24T11:50:16;2.90;;;2.60;;
12110;SDS011;6119;52.372;8.990;2023-07-24T11:53:03;2.37;;;2.17;;
12110;SDS011;6119;52.372;8.990;2023-07-24T11:55:50;2.10;;;1.90;;
12110;SDS011;6119;52.372;8.990;2023-07-24T11:58:37;2.90;;;2.43;;
12110;SDS011;6119;52.372;8.990;2023-07-24T12:01:24;2.50;;;2.00;;
12110;SDS011;6119;52.372;8.990;2023-07-24T12:04:14;2.33;;;2.03;;
12110;SDS011;6119;52.372;8.990;2023-07-24T12:07:01;1.43;;;1.33;;
12110;SDS011;6119;52.372;8.990;2023-07-24T12:09:53;2.87;;;1.97;;
12110;SDS011;6119;52.372;8.990;2023-07-24T12:12:40;2.40;;;1.90;;
12110;SDS011;6119;52.372;8.990;2023-07-24T12:15:31;2.53;;;1.60;;
12110;SDS011;6119;52.372;8.990;2023-07-24T12:18:19;1.80;;;1.70;;
12110;SDS011;6119;52.372;8.990;2023-07-24T12:21:07;3.70;;;1.90;;
12110;SDS011;6119;52.372;8.990;2023-07-24T12:23:54;2.17;;;1.97;;
12110;SDS011;6119;52.372;8.990;2023-07-24T12:26:41;2.10;;;1.90;;
12110;SDS011;6119;52.372;8.990;2023-07-24T12:29:27;5.10;;;1.57;;
12110;SDS011;6119;52.372;8.990;2023-07-24T12:32:14;1.77;;;1.60;;
12110;SDS011;6119;52.372;8.990;2023-07-24T12:35:00;1.77;;;1.67;;
12110;SDS011;6119;52.372;8.990;2023-07-24T12:37:48;2.33;;;2.03;;
12110;SDS011;6119;52.372;8.990;2023-07-24T12:40:35;1.90;;;1.70;;
12110;SDS011;6119;52.372;8.990;2023-07-24T12:43:22;2.13;;;1.93;;
12110;SDS011;6119;52.372;8.990;2023-07-24T12:46:09;2.73;;;1.77;;
12110;SDS011;6119;52.372;8.990;2023-07-24T12:48:55;2.53;;;1.80;;
12110;SDS011;6119;52.372;8.990;2023-07-24T12:51:42;2.67;;;1.90;;
12110;SDS011;6119;52.372;8.990;2023-07-24T12:54:30;2.13;;;1.83;;
12110;SDS011;6119;52.372;8.990;2023-07-24T12:57:37;2.23;;;2.03;;
12110;SDS011;6119;52.372;8.990;2023-07-24T13:00:24;1.97;;;1.87;;
12110;SDS011;6119;52.372;8.990;2023-07-24T13:03:11;2.07;;;1.90;;
12110;SDS011;6119;52.372;8.990;2023-07-24T13:05:58;2.20;;;2.00;;
12110;SDS011;6119;52.372;8.990;2023-07-24T13:08:46;2.10;;;2.00;;
12110;SDS011;6119;52.372;8.990;2023-07-24T13:11:34;2.83;;;2.17;;
12110;SDS011;6119;52.372;8.990;2023-07-24T13:14:21;2.57;;;2.37;;
12110;SDS011;6119;52.372;8.990;2023-07-24T13:17:08;3.20;;;2.90;;
12110;SDS011;6119;52.372;8.990;2023-07-24T13:19:55;2.23;;;2.03;;
12110;SDS011;6119;52.372;8.990;2023-07-24T13:22:43;2.90;;;2.60;;
12110;SDS011;6119;52.372;8.990;2023-07-24T13:25:31;2.90;;;2.50;;
12110;SDS011;6119;52.372;8.990;2023-07-24T13:28:19;3.73;;;2.60;;
12110;SDS011;6119;52.372;8.990;2023-07-24T13:31:13;3.27;;;2.97;;
12110;SDS011;6119;52.372;8.990;2023-07-24T13:34:01;4.33;;;2.53;;
12110;SDS011;6119;52.372;8.990;2023-07-24T13:36:48;2.93;;;2.73;;
12110;SDS011;6119;52.372;8.990;2023-07-24T13:39:35;2.97;;;2.73;;
12110;SDS011;6119;52.372;8.990;2023-07-24T13:42:22;4.73;;;3.17;;
12110;SDS011;6119;52.372;8.990;2023-07-24T13:45:10;3.60;;;3.30;;
12110;SDS011;6119;52.372;8.990;2023-07-24T13:47:57;3.40;;;3.17;;
12110;SDS011;6119;52.372;8.990;2023-07-24T13:50:44;10.10;;;4.13;;
12110;SDS011;6119;52.372;8.990;2023-07-24T13:53:30;4.40;;;4.00;;
12110;SDS011;6119;52.372;8.990;2023-07-24T13:56:17;5.60;;;4.03;;
12110;SDS011;6119;52.372;8.990;2023-07-24T13:59:04;4.67;;;4.10;;
12110;SDS011;6119;52.372;8.990;2023-07-24T14:01:52;4.60;;;4.20;;
12110;SDS011;6119;52.372;8.990;2023-07-24T14:04:39;4.97;;;4.47;;
12110;SDS011;6119;52.372;8.990;2023-07-24T14:07:26;5.03;;;4.63;;
12110;SDS011;6119;52.372;8.990;2023-07-24T14:10:12;4.93;;;4.43;;
12110;SDS011;6119;52.372;8.990;2023-07-24T14:12:59;4.77;;;4.40;;
12110;SDS011;6119;52.372;8.990;2023-07-24T14:15:46;6.07;;;4.90;;
12110;SDS011;6119;52.372;8.990;2023-07-24T14:18:34;5.40;;;4.60;;
12110;SDS011;6119;52.372;8.990;2023-07-24T14:21:21;5.73;;;5.13;;
12110;SDS011;6119;52.372;8.990;2023-07-24T14:24:07;5.77;;;5.03;;
12110;SDS011;6119;52.372;8.990;2023-07-24T14:26:54;4.87;;;4.37;;
12110;SDS011;6119;52.372;8.990;2023-07-24T14:29:41;5.80;;;5.20;;
12110;SDS011;6119;52.372;8.990;2023-07-24T14:32:28;4.93;;;4.53;;
12110;SDS011;6119;52.372;8.990;2023-07-24T14:35:15;5.50;;;5.00;;
12110;SDS011;6119;52.372;8.990;2023-07-24T14:38:02;5.00;;;4.60;;
12110;SDS011;6119;52.372;8.990;2023-07-24T14:40:49;6.37;;;5.03;;
12110;SDS011;6119;52.372;8.990;2023-07-24T14:43:35;4.97;;;4.47;;
12110;SDS011;6119;52.372;8.990;2023-07-24T14:46:22;6.00;;;5.40;;
12110;SDS011;6119;52.372;8.990;2023-07-24T14:49:09;6.37;;;5.77;;
12110;SDS011;6119;52.372;8.990;2023-07-24T14:51:57;6.13;;;5.63;;
12110;SDS011;6119;52.372;8.990;2023-07-24T14:54:44;5.77;;;5.27;;
12110;SDS011;6119;52.372;8.990;2023-07-24T14:57:31;5.47;;;4.83;;
12110;SDS011;6119;52.372;8.990;2023-07-24T15:00:18;5.27;;;4.77;;
12110;SDS011;6119;52.372;8.990;2023-07-24T15:03:05;5.17;;;3.90;;
12110;SDS011;6119;52.372;8.990;2023-07-24T15:05:52;4.53;;;4.13;;
12110;SDS011;6119;52.372;8.990;2023-07-24T15:08:42;4.30;;;3.90;;
12110;SDS011;6119;52.372;8.990;2023-07-24T15:11:29;4.50;;;3.60;;
12110;SDS011;6119;52.372;8.990;2023-07-24T15:14:16;4.00;;;3.40;;
12110;SDS011;6119;52.372;8.990;2023-07-24T15:17:03;3.17;;;2.80;;
12110;SDS011;6119;52.372;8.990;2023-07-24T15:19:49;5.80;;;3.17;;
12110;SDS011;6119;52.372;8.990;2023-07-24T15:22:36;3.50;;;3.20;;
12110;SDS011;6119;52.372;8.990;2023-07-24T15:25:24;3.00;;;2.80;;
12110;SDS011;6119;52.372;8.990;2023-07-24T15:28:11;3.27;;;3.07;;
12110;SDS011;6119;52.372;8.990;2023-07-24T15:30:58;3.80;;;2.57;;
12110;SDS011;6119;52.372;8.990;2023-07-24T15:33:45;4.33;;;2.47;;
12110;SDS011;6119;52.372;8.990;2023-07-24T15:36:32;3.10;;;2.60;;
12110;SDS011;6119;52.372;8.990;2023-07-24T15:39:20;2.40;;;2.20;;
12110;SDS011;6119;52.372;8.990;2023-07-24T15:42:08;2.60;;;2.40;;
12110;SDS011;6119;52.372;8.990;2023-07-24T15:44:55;2.43;;;2.23;;
12110;SDS011;6119;52.372;8.990;2023-07-24T15:47:41;3.07;;;2.50;;
12110;SDS011;6119;52.372;8.990;2023-07-24T15:50:28;3.60;;;2.70;;
12110;SDS011;6119;52.372;8.990;2023-07-24T15:53:15;2.47;;;2.27;;
12110;SDS011;6119;52.372;8.990;2023-07-24T15:56:02;3.13;;;2.57;;
12110;SDS011;6119;52.372;8.990;2023-07-24T15:58:52;3.27;;;2.53;;
12110;SDS011;6119;52.372;8.990;2023-07-24T16:01:40;3.20;;;2.90;;
12110;SDS011;6119;52.372;8.990;2023-07-24T16:04:27;2.70;;;2.50;;
12110;SDS011;6119;52.372;8.990;2023-07-24T16:07:13;3.13;;;2.90;;
12110;SDS011;6119;52.372;8.990;2023-07-24T16:10:00;2.70;;;2.50;;
12110;SDS011;6119;52.372;8.990;2023-07-24T16:12:47;3.87;;;2.70;;
12110;SDS011;6119;52.372;8.990;2023-07-24T16:15:34;3.40;;;2.70;;
12110;SDS011;6119;52.372;8.990;2023-07-24T16:18:24;3.07;;;2.77;;
12110;SDS011;6119;52.372;8.990;2023-07-24T16:21:11;4.23;;;2.80;;
12110;SDS011;6119;52.372;8.990;2023-07-24T16:23:58;3.53;;;2.70;;
12110;SDS011;6119;52.372;8.990;2023-07-24T16:26:44;2.87;;;2.57;;
12110;SDS011;6119;52.372;8.990;2023-07-24T16:29:32;2.93;;;2.63;;
12110;SDS011;6119;52.372;8.990;2023-07-24T16:32:22;2.63;;;2.37;;
12110;SDS011;6119;52.372;8.990;2023-07-24T16:35:12;2.90;;;2.40;;
12110;SDS011;6119;52.372;8.990;2023-07-24T16:37:59;2.50;;;2.30;;
12110;SDS011;6119;52.372;8.990;2023-07-24T16:40:49;4.57;;;2.33;;
12110;SDS011;6119;52.372;8.990;2023-07-24T16:43:37;3.13;;;1.87;;
12110;SDS011;6119;52.372;8.990;2023-07-24T16:46:24;2.67;;;2.47;;
12110;SDS011;6119;52.372;8.990;2023-07-24T16:49:12;4.73;;;2.13;;
12110;SDS011;6119;52.372;8.990;2023-07-24T16:51:58;4.50;;;2.90;;
12110;SDS011;6119;52.372;8.990;2023-07-24T16:54:48;3.23;;;2.20;;
12110;SDS011;6119;52.372;8.990;2023-07-24T16:57:35;2.23;;;2.07;;
12110;SDS011;6119;52.372;8.990;2023-07-24T17:00:23;5.13;;;2.27;;
12110;SDS011;6119;52.372;8.990;2023-07-24T17:03:10;2.93;;;2.20;;
12110;SDS011;6119;52.372;8.990;2023-07-24T17:05:58;2.40;;;2.03;;